Aviation Digital Data Service (ADDS)

Output produced by METARs form (1908 UTC 24 April 2014)
found at http://aviationweather.gov/adds/metars/
 
KDAG 241850Z AUTO 29010KT 10SM CLR 23/M05 A2999 RMK AO2 SLP139 T02331050
KDAG 241720Z 2418/2518 30014KT P6SM SKC 
     FM250000 25012G20KT P6SM SCT250 
     FM251200 26020G30KT P6SM BKN250
       
KEDW 241858Z 08005KT 80SM FEW250 21/M02 A3000 RMK AO2A SLP148 CONTRAILS T02071022
TAF KEDW 2418/2600 VRB06KT 9999 FEW300 QNH2996INS 
     BECMG 2420/2421 24012G18KT 9999 FEW300 QNH2993INS 
     BECMG 2422/2423 25015G25KT 9999 FEW300 510009 QNH2992INS 
     TEMPO 2423/2503 25020G30KT 520009 
     BECMG 2504/2505 23009KT 9999 FEW200 SCT250 QNH2996INS 
     BECMG 2515/2516 26015G25KT 9999 FEW050 SCT200 BKN250 510009 QNH2994INS 
     TEMPO 2521/2524 24030G40KT 560009 TX27/2423Z TN07/2512Z
       
KVCV 241855Z AUTO 09005KT 10SM SCT110 20/M04 A3003 RMK AO2
KONT 241853Z 21006KT 10SM FEW250 23/07 A2998 RMK AO2 SLP140 T02330067
KONT 241724Z 2418/2524 VRB04KT P6SM FEW250 
     FM242100 25012KT P6SM SCT250 
     FM250500 VRB05KT P6SM SCT250 
     FM251100 25006KT P6SM BKN015 
     FM251600 24010KT P6SM SCT035
       
KNID 241856Z 00000KT 10SM CLR 23/M04 A2999 RMK AO2 SLP143 T02331039 $
TAF KNID 2415/2515 VRB05KT 9999 SKC QNH2993INS 
     FM242000 18008G16KT 9999 FEW270 QNH2985INS 
     FM242300 20014G26KT 9999 FEW270 520009 QNH2980INS 
     BECMG 2501/2503 21012G18KT 9999 FEW200 510009 SCT250 QNH2982INS 
     BECMG 2511/2513 21015G25KT 9999 SCT180 BKN240 520009 520909 QNH2980INS T28/2423Z T16/2514Z
       
KSNA 241853Z 21006KT 10SM SCT350 23/09 A2998 RMK AO2 SLP152 T02280094
KSNA 241724Z 2418/2518 VRB03KT P6SM FEW250 
     FM241900 22009KT P6SM FEW020 
     FM250300 20005KT P6SM SCT015 
     FM250700 16006KT P6SM OVC015 
     FM251700 19011KT P6SM BKN020
       
KSAN 241851Z 22007KT 10SM SCT250 20/10 A3000 RMK AO2 SLP159 T02000100
KSAN 241724Z 2418/2524 VRB04KT P6SM FEW020 FEW250 
     FM242100 23009KT P6SM FEW250 
     FM250300 20005KT P6SM SCT015 
     FM250500 19004KT P6SM BKN015 
     FM251700 18009KT P6SM BKN020
       
KNXP 241856Z VRB03KT 10SM FEW250 26/M10 A3004 RMK AO2 SLP141 T02561100 $
TAF KNXP 2415/2515 VRB06KT 9999 FEW200 QNH2992INS 
     BECMG 2500/2502 24009KT 9999 FEW200 QNH2985INS 
     TEMPO 2502/2506 20016G22KT T25/2423Z T15/2513Z
       
KPSP 241853Z 16006KT 10SM CLR 30/M09 A2992 RMK AO2 SLP129 T03001089
KPSP 241724Z 2418/2518 VRB04KT P6SM FEW250 
     FM242300 34010KT P6SM SCT250 
     FM250600 VRB05KT P6SM SCT250
       
KLAX 241853Z 26011KT 10SM FEW160 22/08 A2999 RMK AO2 SLP153 T02220083
KLAX 241735Z 2418/2524 00000KT P6SM FEW280 
     FM250300 VRB03KT P6SM FEW200 
     FM250900 VRB03KT P6SM BKN020 
     FM251600 14006KT P6SM BKN020 OVC150 
     FM252000 24012KT P6SM BKN025
       
KCNO 241853Z 29009KT 10SM FEW250 24/09 A2998 RMK AO2 SLP150 T02440089
KSMO 241851Z 22007KT 10SM CLR 22/08 A2999 RMK AO2 SLP153 T02220078
KLGB 241853Z 19006KT 10SM CLR 22/06 A2999 RMK AO2 SLP154 T02170061
KLGB 241735Z 2418/2518 00000KT P6SM SKC 
     FM242300 29010KT P6SM FEW200 
     FM250300 VRB03KT P6SM FEW200 
     FM250900 VRB03KT P6SM BKN020
       
KVNY 241851Z VRB03KT 10SM CLR 25/00 A2997 RMK AO2 SLP141 T02500000
KVNY 241735Z 2418/2518 29003KT P6SM FEW200 
     FM242100 14008KT P6SM SCT200 
     FM250300 VRB03KT P6SM FEW200 
     FM251200 VRB03KT P6SM BKN015
       
KBUR 241853Z VRB03KT 10SM CLR 24/M01 A2998 RMK AO2 SLP139 T02391006
KBUR 241735Z 2418/2518 00000KT P6SM SKC 
     FM242000 17008KT P6SM SKC 
     FM250300 VRB03KT P6SM FEW200 
     FM251200 VRB03KT P6SM BKN015
       
KBFL 241854Z VRB04KT 10SM CLR 21/03 A3007 RMK AO2 SLP178 T02110028
KBFL 241729Z 2418/2518 VRB03KT P6SM SKC 
     FM242100 32008KT P6SM FEW200 
     FM250300 35007KT P6SM SCT200 
     FM251200 32007KT P6SM BKN120 OVC200
       
KPMD 241853Z 00000KT 10SM CLR 22/M03 A3003 RMK AO2 SLP152 T02171028
KPMD 241735Z 2418/2518 VRB03KT P6SM SKC 
     FM242000 27012KT P6SM SKC 
     FM242300 27015G25KT P6SM SKC 
     FM250300 27012KT P6SM SKC
       
KOXR 241851Z 25008KT 10SM CLR 19/10 A3000 RMK AO2 SLP156 T01940100
KOXR 241735Z 2418/2518 00000KT P6SM SKC 
     FM242000 27010KT P6SM SKC 
     FM250300 VRB03KT P6SM SKC 
     FM250900 VRB03KT P6SM BKN015
       
KWJF 241856Z 00000KT 10SM CLR 22/M03 A3001 RMK AO2 SLP156 T02171033
KWJF 241735Z 2418/2518 00000KT P6SM SKC 
     FM242100 26012KT P6SM SKC 
     FM242300 27015G25KT P6SM SKC 
     FM250400 27015KT P6SM SKC
       
KCMA 241855Z 24010KT 10SM CLR 22/08 A2998 RMK AO2 SLP161 T02220078 $
KFAT 241853Z VRB05KT 10SM FEW200 22/04 A3007 RMK AO2 SLP181 T02170044
KFAT 241729Z 2418/2518 30007KT P6SM FEW200 
     FM250200 31012KT P6SM SCT150 BKN200 
     FM250800 32008KT P6SM BKN120 
     FM251400 32010KT P6SM SCT050 OVC090 
     PROB30 2516/2518 6SM -RA BKN050
       
KEED 241856Z AUTO VRB05KT 10SM CLR 29/M13 A2993 RMK AO2 SLP108 T02891128
KEED 241720Z 2418/2518 VRB05KT P6SM SKC 
     FM242100 20010KT P6SM SKC 
     FM250300 24008KT P6SM FEW250
       
KLSV 241858Z AUTO VRB03KT 10SM CLR 25/M11 A2996 RMK AO2 SLP129 T02501112
TAF KLSV 2417/2523 VRB06KT 9999 SKC QNH2993INS 
     BECMG 2422/2423 17012KT 9999 SKC QNH2980INS 
     BECMG 2515/2516 20015G25KT 9999 SCT200 510009 QNH2976INS 
     BECMG 2517/2518 21025G35KT 9999 SCT200 520009 QNH2975INS 
     TEMPO 2520/2523 21025G45KT TX28/2500Z TN12/2512Z
       
KLAS 241856Z 14004KT 10SM CLR 25/M11 A2994 RMK AO2 SLP122 T02501111
KLAS 241720Z 2418/2518 03007KT P6SM FEW250 
     FM242000 09006KT P6SM SKC 
     FM242200 17010KT P6SM SKC 
     FM250200 21010KT P6SM FEW250 
     FM251200 19014KT P6SM SCT140 BKN250
       
KHII 241855Z AUTO 18005KT 10SM CLR 28/M10 A2993 RMK AO2
KIFP 241855Z AUTO 15006KT 10SM CLR 28/M10 A2994 RMK AO2